KBLV/BLV METAR and TAF weather

Enter ICAO airport designator
Station Type Date Time Source
KBLV METAR 2019/08/22 03:23 UTC NOAA

KBLV 220323Z AUTO 25011G19KT 10SM +TSRA BR SCT001 24/23 A3001 RMK AO2 WSHFT 13 VIS 2 1/2 RWY14L VIS 1 7/8 RWY14R VIS 1 3/8 RWY32L TSB08 SLP161 $


Station Type Date Time Source
KBLV Decoded METAR 2019/08/22 03:23 UTC NOAA

Station name not available
Aug 21, 2019 - 11:23 PM EDT / 2019.08.22 0323 UTC
Wind: from the WSW (250 degrees) at 13 MPH (11 KT) gusting to 22 MPH (19 KT):0
Visibility: 10 mile(s):0
Sky conditions: partly cloudy
Weather: heavy rain with thunder; mist
Temperature: 75 F (24 C)
Dew Point: 73 F (23 C)
Relative Humidity: 94%
Pressure (altimeter): 30.01 in. Hg (1016 hPa)
ob: KBLV 220323Z AUTO 25011G19KT 10SM +TSRA BR SCT001 24/23 A3001 RMK AO2 WSHFT 13 VIS 2 1/2 RWY14L VIS 1 7/8 RWY14R VIS 1 3/8 RWY32L TSB08 SLP161
cycle: 3

Station Type Date Time Source
KBLV TAF 2019/08/22 00:54 UTC NOAA

TAF TAF KBLV 220000Z 2200/2306 VRB06KT 9999 FEW035 QNH2992INS
BECMG 2202/2203 VRB06KT 9000 -SHRA BKN040 OVC050 QNH2994INS
TEMPO 2203/2205 14012G18KT 6000 -TSRA OVC030CB
BECMG 2207/2208 VRB06KT 8000 -RA OVC015 QNH2990INS
TEMPO 2218/2222 32012G18KT 6000 -TSRA OVC015CB
BECMG 2223/2224 36012KT 9999 NSW OVC030 QNH2985INS TX30/2200Z TN20/2211Z

Example: see airport list